Ana Sayfa
METAR-TAF:

METAR-TAF

Havaalanları :

Provincetown Municipal Airport

Provincetown, Massachusetts, Amerika Birleşik Devletleri

Enlem: 42-04N, Boylam: 070-13W, yükseklik: 2 m

Güncel hava durumu gözlemi

Rapor saat 15:56 UTC de 53 dakika önce yapıldı.
Rüzgar güneybatıdan 7 kt
Sıcaklık 2°C
Nem 51%
Basınç 1033 hPa
Görüş mesafesi: 16.1 km
Açık gökyüzü

METAR: KPVC 141556Z AUTO 22007KT 10SM CLR 02/M07 A3049 RMK AO2 SLP325 T00221067 FZRANO

Saat: 11:49 (16:49 UTC)


TAF: eksik

4.000'den fazla havaalanı için hava durumu gözlemleri ve tahminleri (METAR ve TAF raporları).

Kullanılabilir istasyonlar harita üzerinde sarı ve kırmızı noktalarla gösterilir.

İstasyonun adını görmek için fareyi noktanın üzerinde gezdirin.

Sonrasında hava gözlem ve tahminlerini görmek için tıklayın.

Haritayı değiştirmek için: yaklaştırmak için siyah artı işaretli yeşil düğmeye ve uzaklaştırmak için de eksi işaretli düğmeye hızla tıklayın; bitişik haritalar için yeşil okları kullanın.


METAR-TAF: